Elwood, South Dakota
Current Conditions -  °F | °C
As of 10:55 AM on Friday 28 Nov 2014 (Local Time) from KPHP Reporting Station
Clear Clear  
Wind Chill: 46°   Ceiling: Unl
Heat Index: 48°   Visibility: 10mi
Dew Point: 31°   Wind: 5mph
Humidity: 52%   Direction: 250°WSW
Pressure: 29.66"   Gusts: NA
Location:  44.6395°N, 101.796°W
Report Text: KPHP 281755Z AUTO 25004KT 10SM CLR 09/M01 A2966 RMK AO2 SLP054 T00891006 10089 21050 58013
Loading
Personal Weather Stations






























Interactive Weather Map New forecast layout! Learn more

10-Day Weather Forecast

Advertisements
Track Severe Weather on mobile